Time;durP1;ratioP1;P1;durP2;ratioP2;P2;SDS_P1;SDS_P2;PMS_P1;PMS_P2;Temp;Humidity;BMP_temperature;BMP_pressure;BME280_temperature;BME280_humidity;BME280_pressure;Samples;Min_cycle;Max_cycle;Signal;HPM_P1;HPM_P2
2021/10/30 00:00:05;;;;;;;17.60;9.15;;;;;;;9.34;91.36;100495.56;5117923;27;20034;-88
2021/10/30 00:02:30;;;;;;;16.92;9.05;;;;;;;9.33;91.41;100493.06;5153417;27;20094;-88
2021/10/30 00:04:56;;;;;;;13.83;8.33;;;;;;;9.26;91.64;100488.34;5134555;27;20097;-89
2021/10/30 00:07:21;;;;;;;16.67;8.03;;;;;;;9.34;91.70;100500.03;5135185;27;20027;-87
2021/10/30 00:09:47;;;;;;;14.70;8.57;;;;;;;9.41;91.50;100504.59;5153278;27;20447;-89
2021/10/30 00:12:12;;;;;;;17.02;8.80;;;;;;;9.33;91.87;100490.41;5153244;27;20035;-89
2021/10/30 00:14:38;;;;;;;15.73;8.27;;;;;;;9.30;91.48;100502.22;5153137;27;20027;-89
2021/10/30 00:17:04;;;;;;;15.95;8.25;;;;;;;9.33;91.53;100498.38;5135246;27;20419;-87
2021/10/30 00:19:29;;;;;;;14.77;9.82;;;;;;;9.21;91.94;100501.31;5153621;27;20034;-88
2021/10/30 00:21:55;;;;;;;12.97;8.07;;;;;;;9.02;92.65;100474.94;5153576;27;20107;-88
2021/10/30 00:24:20;;;;;;;13.73;7.77;;;;;;;8.88;93.14;100468.38;5132036;27;20023;-87
2021/10/30 00:26:46;;;;;;;18.00;8.67;;;;;;;8.85;94.12;100482.84;5097696;28;20238;-88
2021/10/30 00:29:11;;;;;;;16.75;8.65;;;;;;;8.95;94.52;100503.19;5098027;28;20309;-88
2021/10/30 00:31:37;;;;;;;13.38;8.50;;;;;;;8.91;94.57;100504.50;5097614;28;20042;-87
2021/10/30 00:34:02;;;;;;;12.53;8.50;;;;;;;8.86;95.04;100500.47;5132231;28;20083;-88
2021/10/30 00:36:28;;;;;;;16.03;7.97;;;;;;;8.81;94.99;100500.13;5114561;28;20480;-88
2021/10/30 00:38:53;;;;;;;13.90;7.97;;;;;;;8.73;95.22;100480.59;5114173;28;20119;-88
2021/10/30 00:41:19;;;;;;;17.90;8.75;;;;;;;8.64;95.73;100480.56;5097596;28;20042;-88
2021/10/30 00:43:45;;;;;;;14.68;8.98;;;;;;;8.70;96.26;100511.03;5138897;28;20270;-88
2021/10/30 00:46:10;;;;;;;16.40;8.88;;;;;;;8.86;95.98;100515.63;5135506;27;20035;-88
2021/10/30 00:48:36;;;;;;;16.08;8.75;;;;;;;8.87;95.11;100504.81;5152799;27;20114;-88
2021/10/30 00:51:04;;;;;;;16.83;8.67;;;;;;;8.90;95.32;100519.66;5153259;27;20026;-88
2021/10/30 00:53:32;;;;;;;15.90;8.40;;;;;;;8.94;95.26;100518.31;5134381;27;20066;-88
2021/10/30 00:56:03;;;;;;;15.75;9.15;;;;;;;8.96;95.29;100513.69;5136474;27;20356;-88
2021/10/30 00:58:31;;;;;;;13.27;7.80;;;;;;;9.03;94.96;100516.53;5156489;27;20038;-88
2021/10/30 01:00:58;;;;;;;14.32;8.13;;;;;;;9.04;94.73;100507.59;5120972;27;20046;-88
2021/10/30 01:03:23;;;;;;;14.95;8.52;;;;;;;9.17;94.47;100520.44;5156049;27;20114;-89
2021/10/30 01:05:49;;;;;;;15.03;7.80;;;;;;;9.19;94.32;100511.31;5154251;27;20140;-87
2021/10/30 01:08:14;;;;;;;15.18;8.45;;;;;;;9.28;93.73;100501.53;5156515;27;20470;-89
2021/10/30 01:10:40;;;;;;;16.07;9.27;;;;;;;9.25;93.38;100497.34;5138424;27;20050;-88
2021/10/30 01:13:06;;;;;;;15.70;8.05;;;;;;;9.12;93.67;100480.97;5156225;27;20030;-88
2021/10/30 01:15:32;;;;;;;15.27;8.15;;;;;;;9.16;94.10;100497.47;5143550;27;20027;-89
2021/10/30 01:17:57;;;;;;;11.18;7.80;;;;;;;9.12;94.36;100483.63;5147659;27;20038;-89
2021/10/30 01:20:27;;;;;;;12.97;7.23;;;;;;;9.15;94.35;100493.97;5155888;27;20086;-89
2021/10/30 01:22:58;;;;;;;14.90;9.00;;;;;;;9.26;94.17;100520.31;5155568;27;20064;-89
2021/10/30 01:25:23;;;;;;;13.80;7.95;;;;;;;9.38;93.58;100525.38;5154589;27;20041;-88
2021/10/30 01:27:51;;;;;;;11.45;6.65;;;;;;;9.58;93.09;100533.97;5137387;27;20026;-89
2021/10/30 01:30:18;;;;;;;15.88;7.85;;;;;;;9.58;92.39;100508.13;5136792;27;20058;-89
2021/10/30 01:33:03;;;;;;;13.65;7.15;;;;;;;9.69;91.55;100488.31;5137907;27;20014;-88
2021/10/30 01:35:40;;;;;;;11.98;7.55;;;;;;;9.59;91.51;100469.81;5137125;27;20099;-89
2021/10/30 01:38:07;;;;;;;13.45;7.03;;;;;;;9.63;91.10;100475.66;5137511;27;20053;-89
2021/10/30 01:40:43;;;;;;;13.45;6.75;;;;;;;9.57;91.04;100474.47;5134274;27;20026;-88
2021/10/30 01:43:11;;;;;;;13.20;8.23;;;;;;;9.58;90.93;100484.16;5134555;27;20041;-89
2021/10/30 01:45:37;;;;;;;12.98;7.90;;;;;;;9.53;91.10;100470.47;5099540;27;20379;-88
2021/10/30 01:48:03;;;;;;;14.95;7.18;;;;;;;9.60;91.12;100495.50;5118380;27;20035;-88
2021/10/30 01:50:29;;;;;;;15.90;7.75;;;;;;;9.58;90.90;100478.81;5120076;27;20052;-89
2021/10/30 01:52:56;;;;;;;;;;;;;;;9.61;90.81;100490.97;5155835;27;20034;-89
2021/10/30 01:55:22;;;;;;;11.60;7.80;;;;;;;9.50;90.82;100468.13;5136927;27;19911;-88
2021/10/30 01:57:49;;;;;;;12.10;6.60;;;;;;;9.42;91.33;100460.94;5154848;27;20037;-88
2021/10/30 02:00:16;;;;;;;11.43;6.38;;;;;;;9.47;91.42;100477.28;5133370;27;20114;-89
2021/10/30 02:02:42;;;;;;;14.05;6.93;;;;;;;9.38;91.33;100464.91;5116336;27;20019;-89
2021/10/30 02:05:09;;;;;;;10.95;8.20;;;;;;;9.50;91.30;100484.13;5134349;27;20070;-89
2021/10/30 02:07:35;;;;;;;14.60;7.53;;;;;;;9.53;90.96;100486.47;5115114;27;20039;-89
2021/10/30 02:10:01;;;;;;;11.00;7.35;;;;;;;9.55;90.64;100489.78;5115671;27;20460;-88
2021/10/30 02:12:26;;;;;;;13.80;6.85;;;;;;;9.44;90.84;100477.63;5116357;27;20055;-89
2021/10/30 02:14:52;;;;;;;12.43;7.63;;;;;;;9.46;90.93;100472.13;5102478;27;20027;-88
2021/10/30 02:17:17;;;;;;;14.47;7.43;;;;;;;9.45;90.89;100473.09;5119688;27;20484;-89
2021/10/30 02:19:43;;;;;;;13.85;7.60;;;;;;;9.49;91.06;100479.78;5135454;27;20031;-88
2021/10/30 02:22:09;;;;;;;11.20;6.65;;;;;;;9.54;90.60;100480.13;5154778;27;20035;-88
2021/10/30 02:24:34;;;;;;;12.40;7.28;;;;;;;9.50;90.92;100484.13;5154415;27;20031;-88
2021/10/30 02:27:00;;;;;;;11.20;6.93;;;;;;;9.50;90.82;100489.44;5119230;27;20035;-88
2021/10/30 02:29:26;;;;;;;13.80;7.65;;;;;;;9.44;90.91;100477.63;5115837;27;20035;-87
2021/10/30 02:31:52;;;;;;;11.15;7.03;;;;;;;9.40;91.31;100478.09;5133545;27;20043;-87
2021/10/30 02:34:18;;;;;;;15.73;8.43;;;;;;;9.37;91.52;100481.09;5132831;27;20074;-89
2021/10/30 02:36:43;;;;;;;13.02;7.78;;;;;;;9.37;91.49;100484.59;5133034;27;20437;-89
2021/10/30 02:39:11;;;;;;;18.50;8.47;;;;;;;9.34;91.42;100497.38;5135577;27;20107;-89
2021/10/30 02:41:37;;;;;;;13.00;7.40;;;;;;;9.17;91.60;100461.84;5119012;27;20122;-88
2021/10/30 02:44:03;;;;;;;16.17;9.13;;;;;;;9.32;91.78;100494.03;5153474;27;20034;-88
2021/10/30 02:46:29;;;;;;;10.68;6.85;;;;;;;9.29;91.87;100496.06;5135493;27;20034;-89
2021/10/30 02:48:55;;;;;;;18.55;8.32;;;;;;;9.32;91.78;100494.03;5129129;27;20042;-89
2021/10/30 02:51:22;;;;;;;10.70;7.13;;;;;;;9.16;91.95;100471.69;5132547;27;20031;-88
2021/10/30 02:53:47;;;;;;;11.68;7.75;;;;;;;9.18;92.23;100493.66;5114406;27;20180;-87
2021/10/30 02:56:13;;;;;;;12.17;6.97;;;;;;;9.06;92.70;100486.94;5115715;27;20077;-88
2021/10/30 02:58:39;;;;;;;11.73;7.22;;;;;;;9.02;92.67;100477.59;5117930;27;20031;-88
2021/10/30 03:01:06;;;;;;;17.48;8.18;;;;;;;8.99;92.97;100470.78;5136007;27;20038;-89
2021/10/30 03:03:32;;;;;;;12.37;7.53;;;;;;;8.96;93.31;100475.56;5153828;27;20022;-88
2021/10/30 03:05:57;;;;;;;14.03;8.00;;;;;;;8.85;94.15;100480.19;5153812;27;20057;-88
2021/10/30 03:08:23;;;;;;;12.57;6.73;;;;;;;8.75;94.14;100466.13;5134815;27;20027;-88
2021/10/30 03:10:48;;;;;;;12.10;7.97;;;;;;;8.69;94.73;100474.75;5132897;27;20035;-88
2021/10/30 03:13:14;;;;;;;11.47;8.13;;;;;;;8.62;95.47;100473.72;5115005;27;20335;-88
2021/10/30 03:15:39;;;;;;;17.33;8.47;;;;;;;8.54;95.72;100481.63;5132703;27;20027;-88
2021/10/30 03:18:05;;;;;;;14.57;8.30;;;;;;;8.53;96.02;100479.97;5097662;27;20031;-88
2021/10/30 03:20:30;;;;;;;9.93;6.78;;;;;;;8.56;96.19;100485.81;5115720;27;20042;-88
2021/10/30 03:22:56;;;;;;;12.00;7.83;;;;;;;8.52;96.72;100494.25;5135746;27;20034;-88
2021/10/30 03:25:21;;;;;;;17.20;8.13;;;;;;;8.49;96.93;100497.22;5153473;27;20659;-88
2021/10/30 03:27:46;;;;;;;14.17;8.97;;;;;;;8.42;96.97;100500.50;5135476;27;20038;-88
2021/10/30 03:30:12;;;;;;;11.00;7.80;;;;;;;8.46;97.28;100511.69;5115041;27;20353;-88
2021/10/30 03:32:38;;;;;;;13.57;8.45;;;;;;;8.42;97.07;100516.47;5114876;28;20019;-88
2021/10/30 03:35:04;;;;;;;14.73;8.00;;;;;;;8.37;97.16;100505.41;5114698;27;20072;-88
2021/10/30 03:37:33;;;;;;;14.52;8.30;;;;;;;8.40;96.98;100502.47;5132494;27;20031;-88
2021/10/30 03:39:59;;;;;;;15.18;9.38;;;;;;;8.39;96.87;100505.28;5131238;27;20058;-87
2021/10/30 03:42:26;;;;;;;13.88;8.90;;;;;;;8.39;96.99;100506.09;5132513;27;20099;-88
2021/10/30 03:44:51;;;;;;;17.58;8.80;;;;;;;8.25;97.11;100483.56;5132408;27;20035;-88
2021/10/30 03:47:18;;;;;;;15.02;8.68;;;;;;;8.29;97.38;100513.34;5132621;27;20890;-88
2021/10/30 03:49:44;;;;;;;17.20;8.35;;;;;;;8.24;97.50;100504.97;5132504;28;20130;-88
2021/10/30 03:52:10;;;;;;;17.73;8.32;;;;;;;8.19;97.60;100499.28;5131721;28;20118;-88
2021/10/30 03:54:35;;;;;;;12.93;8.67;;;;;;;8.27;97.69;100517.97;5132217;27;20126;-89
2021/10/30 03:57:01;;;;;;;22.00;8.95;;;;;;;8.22;97.70;100509.63;5114964;28;20037;-88
2021/10/30 03:59:27;;;;;;;15.57;8.05;;;;;;;8.18;97.73;100503.78;5147780;27;20113;-89
2021/10/30 04:01:53;;;;;;;;;;;;;;;8.24;97.53;100511.16;5135633;27;20049;-88
2021/10/30 04:04:18;;;;;;;;;;;;;;;8.11;97.90;100512.53;5118584;27;19914;-88
2021/10/30 04:06:44;;;;;;;16.00;8.23;;;;;;;8.00;98.37;100513.56;5153341;27;20029;-88
2021/10/30 04:09:10;;;;;;;12.20;8.00;;;;;;;7.94;98.64;100523.00;5152247;27;20088;-88
2021/10/30 04:11:35;;;;;;;14.83;8.73;;;;;;;7.87;98.79;100526.41;5135077;27;20450;-88
2021/10/30 04:14:01;;;;;;;15.17;8.50;;;;;;;7.75;98.92;100517.78;5152949;27;20487;-88
2021/10/30 04:16:27;;;;;;;14.13;7.72;;;;;;;7.63;99.15;100519.00;5153098;27;20031;-88
2021/10/30 04:18:52;;;;;;;15.60;9.25;;;;;;;7.67;99.97;100520.38;5152779;27;20464;-88
2021/10/30 04:21:18;;;;;;;14.87;8.83;;;;;;;7.73;100.00;100541.06;5152945;27;20047;-88
2021/10/30 04:23:43;;;;;;;17.42;8.10;;;;;;;7.70;100.00;100536.00;5117563;27;20479;-88
2021/10/30 04:26:09;;;;;;;12.63;8.37;;;;;;;7.59;99.96;100521.13;5134753;27;20478;-87
2021/10/30 04:28:35;;;;;;;15.98;7.97;;;;;;;7.48;99.67;100510.69;5145710;27;20034;-88
2021/10/30 04:31:08;;;;;;;15.93;8.45;;;;;;;7.44;100.00;100512.78;5117103;27;20050;-88
2021/10/30 04:33:35;;;;;;;14.65;8.55;;;;;;;7.47;100.00;100520.50;5118216;27;20552;-87
2021/10/30 04:36:13;;;;;;;15.38;8.88;;;;;;;7.49;100.00;100533.59;5101243;27;20031;-86
2021/10/30 04:38:39;;;;;;;14.75;8.38;;;;;;;7.51;100.00;100536.94;5108550;27;20038;-85
2021/10/30 04:41:04;;;;;;;16.23;8.73;;;;;;;7.57;100.00;100545.16;5139179;27;20116;-87
2021/10/30 04:43:30;;;;;;;15.15;10.63;;;;;;;7.63;100.00;100546.38;5121868;27;20375;-87
2021/10/30 04:45:55;;;;;;;13.87;8.47;;;;;;;7.58;100.00;100544.19;5138493;27;20110;-87
2021/10/30 04:48:21;;;;;;;17.00;8.87;;;;;;;7.65;100.00;100549.75;5120588;27;20393;-85
2021/10/30 04:50:46;;;;;;;14.23;9.57;;;;;;;7.65;100.00;100555.06;5120905;27;20037;-87
2021/10/30 04:53:12;;;;;;;13.88;9.57;;;;;;;7.61;100.00;100538.59;5138261;27;20065;-87
2021/10/30 04:55:38;;;;;;;15.90;9.77;;;;;;;7.52;100.00;100528.84;5156383;27;20041;-88
2021/10/30 04:58:03;;;;;;;21.60;10.33;;;;;;;7.53;100.00;100540.31;5136853;27;20030;-87
2021/10/30 05:00:30;;;;;;;14.07;8.98;;;;;;;7.54;100.00;100540.16;5117154;27;20052;-87
2021/10/30 05:02:56;;;;;;;18.88;10.00;;;;;;;7.60;100.00;100538.72;5117550;27;20099;-87
2021/10/30 05:05:22;;;;;;;21.13;9.35;;;;;;;7.53;100.00;100525.19;5117691;27;20034;-87
2021/10/30 05:07:47;;;;;;;16.75;9.85;;;;;;;7.54;100.00;100526.88;5135947;27;20031;-87
2021/10/30 05:10:15;;;;;;;14.77;9.20;;;;;;;7.54;100.00;100524.22;5117808;27;20509;-87
2021/10/30 05:12:40;;;;;;;15.52;9.60;;;;;;;7.50;100.00;100511.38;5116721;27;20478;-87
2021/10/30 05:15:06;;;;;;;20.55;9.95;;;;;;;7.50;100.00;100506.06;5117609;27;20121;-87
2021/10/30 05:17:32;;;;;;;18.95;9.68;;;;;;;7.51;100.00;100500.59;5134720;27;20099;-87
2021/10/30 05:19:58;;;;;;;16.83;9.48;;;;;;;7.46;100.00;100510.84;5116480;27;20035;-87
2021/10/30 05:22:23;;;;;;;20.70;9.40;;;;;;;7.45;100.00;100495.06;5116827;27;20106;-87
2021/10/30 05:24:49;;;;;;;18.55;10.32;;;;;;;7.47;100.00;100501.03;5116172;27;20099;-87
2021/10/30 05:27:15;;;;;;;17.90;10.23;;;;;;;7.46;100.00;100513.50;5127124;27;20088;-87
2021/10/30 05:29:41;;;;;;;18.52;8.80;;;;;;;7.45;100.00;100516.31;5120584;27;20288;-87
2021/10/30 05:32:07;;;;;;;16.95;9.85;;;;;;;7.44;100.00;100526.06;5107286;27;20034;-87
2021/10/30 05:34:42;;;;;;;21.17;9.48;;;;;;;7.40;100.00;100538.00;5124180;27;20054;-87
2021/10/30 05:37:27;;;;;;;15.88;9.43;;;;;;;7.38;100.00;100534.66;5127715;27;20046;-87
2021/10/30 05:39:53;;;;;;;15.60;9.70;;;;;;;7.45;100.00;100546.38;5122434;27;20035;-87
2021/10/30 05:42:19;;;;;;;15.47;9.23;;;;;;;7.52;100.00;100554.59;5122221;27;20146;-86
2021/10/30 05:44:45;;;;;;;17.38;9.55;;;;;;;7.52;100.00;100525.38;5140022;27;20295;-87
2021/10/30 05:47:11;;;;;;;16.67;10.68;;;;;;;7.47;100.00;100519.63;5158182;27;20035;-86
2021/10/30 05:49:38;;;;;;;14.15;9.27;;;;;;;7.48;100.00;100514.19;5141558;27;20094;-87
2021/10/30 05:52:05;;;;;;;15.57;9.23;;;;;;;7.46;100.00;100524.13;5159855;27;20113;-87
2021/10/30 05:54:31;;;;;;;15.05;8.65;;;;;;;7.46;100.00;100526.78;5140655;27;20049;-86
2021/10/30 05:56:56;;;;;;;15.70;8.80;;;;;;;7.51;100.00;100543.09;5123979;27;20011;-88
2021/10/30 05:59:22;;;;;;;17.77;9.13;;;;;;;7.64;99.69;100547.25;5153694;27;20073;-88
2021/10/30 06:01:47;;;;;;;14.47;9.13;;;;;;;7.68;99.43;100530.88;5137879;27;20097;-87
2021/10/30 06:04:13;;;;;;;15.75;8.77;;;;;;;7.74;98.94;100537.38;5102596;27;20127;-86
2021/10/30 06:06:38;;;;;;;16.70;9.30;;;;;;;7.73;98.72;100514.47;5118288;27;20126;-87
2021/10/30 06:09:04;;;;;;;14.97;8.77;;;;;;;7.85;97.91;100526.56;5116535;27;20070;-88
2021/10/30 06:11:29;;;;;;;16.43;8.60;;;;;;;7.86;97.25;100484.84;5116315;27;20019;-87
2021/10/30 06:13:55;;;;;;;16.42;8.18;;;;;;;7.72;97.12;100472.94;5133758;27;20364;-87
2021/10/30 06:16:21;;;;;;;16.02;9.48;;;;;;;7.86;96.93;100487.50;5114977;27;20062;-88
2021/10/30 06:18:46;;;;;;;14.77;8.60;;;;;;;7.86;96.14;100467.06;5114682;27;20019;-87
2021/10/30 06:21:12;;;;;;;15.40;9.30;;;;;;;7.81;96.13;100466.69;5114203;27;20126;-88
2021/10/30 06:23:37;;;;;;;16.33;9.40;;;;;;;7.66;96.24;100447.81;5114014;27;20025;-87
2021/10/30 06:26:03;;;;;;;17.23;9.48;;;;;;;7.71;96.64;100477.41;5096686;27;20043;-88
2021/10/30 06:28:29;;;;;;;12.52;8.52;;;;;;;7.69;96.66;100483.88;5113918;27;20143;-87
2021/10/30 06:30:54;;;;;;;20.50;10.48;;;;;;;7.73;97.19;100493.22;5113367;27;20054;-87
2021/10/30 06:33:20;;;;;;;19.87;9.13;;;;;;;7.77;96.66;100499.88;5096169;27;20023;-88
2021/10/30 06:35:45;;;;;;;16.10;9.93;;;;;;;7.72;96.61;100480.91;5112942;27;20100;-88
2021/10/30 06:38:12;;;;;;;16.65;8.90;;;;;;;7.75;96.39;100478.78;5113289;27;20103;-89
2021/10/30 06:40:37;;;;;;;;;;;;;;;7.84;96.20;100477.03;5113543;27;20049;-89
2021/10/30 06:43:03;;;;;;;;;;;;;;;7.76;95.96;100463.66;5113347;27;20389;-88
2021/10/30 06:45:28;;;;;;;17.57;10.70;;;;;;;7.90;95.94;100492.38;5112036;27;19915;-88
2021/10/30 06:47:54;;;;;;;15.13;9.63;;;;;;;7.86;95.74;100469.75;5095711;27;20027;-87
2021/10/30 06:50:22;;;;;;;17.73;8.53;;;;;;;7.89;95.59;100480.09;5112453;27;20035;-88
2021/10/30 06:52:53;;;;;;;16.10;7.88;;;;;;;7.88;95.31;100467.78;5129911;27;20114;-88
2021/10/30 06:55:20;;;;;;;13.85;8.82;;;;;;;7.93;95.53;100472.63;5129953;27;20035;-88
2021/10/30 06:57:50;;;;;;;16.50;8.70;;;;;;;8.12;95.14;100501.72;5111832;27;20046;-88
2021/10/30 07:00:16;;;;;;;13.90;8.07;;;;;;;8.36;94.76;100501.09;5129541;27;20031;-89
2021/10/30 07:02:43;;;;;;;17.35;9.32;;;;;;;8.60;93.54;100497.00;5095281;27;20058;-87
2021/10/30 07:05:08;;;;;;;17.60;8.95;;;;;;;8.85;92.61;100498.00;5129990;27;20043;-88
2021/10/30 07:07:35;;;;;;;12.55;8.25;;;;;;;8.86;91.51;100476.50;5112188;27;20035;-87
2021/10/30 07:10:00;;;;;;;20.38;9.60;;;;;;;9.08;90.43;100479.63;5111979;27;20030;-86
2021/10/30 07:12:27;;;;;;;11.02;8.13;;;;;;;9.16;89.37;100444.22;5111859;27;20039;-88
2021/10/30 07:14:53;;;;;;;16.95;9.52;;;;;;;9.07;89.08;100440.69;5129896;27;20125;-85
2021/10/30 07:17:19;;;;;;;15.32;9.43;;;;;;;9.06;89.14;100434.53;5111944;27;20065;-88
2021/10/30 07:19:44;;;;;;;14.50;9.50;;;;;;;9.10;88.94;100432.34;5129579;27;20088;-86
2021/10/30 07:22:10;;;;;;;13.77;9.13;;;;;;;9.13;89.29;100461.34;5130218;27;20031;-86
2021/10/30 07:24:35;;;;;;;14.80;9.10;;;;;;;9.07;88.91;100430.03;5111885;27;20269;-86
2021/10/30 07:27:01;;;;;;;17.43;8.47;;;;;;;9.37;88.84;100467.78;5130144;27;20321;-89
2021/10/30 07:29:26;;;;;;;12.00;7.83;;;;;;;9.28;88.00;100425.09;5130037;27;20038;-88
2021/10/30 07:31:52;;;;;;;13.45;8.57;;;;;;;8.97;88.64;100402.69;5095005;27;20463;-86
2021/10/30 07:34:17;;;;;;;14.83;8.07;;;;;;;9.08;89.13;100426.34;5111302;27;20360;-89
2021/10/30 07:36:43;;;;;;;12.80;7.87;;;;;;;9.19;89.30;100436.72;5130016;27;20868;-88
2021/10/30 07:39:08;;;;;;;13.23;8.97;;;;;;;8.87;88.98;100394.81;5130284;27;20031;-88
2021/10/30 07:41:33;;;;;;;14.20;8.27;;;;;;;8.94;89.22;100414.47;5111637;27;20038;-89
2021/10/30 07:43:59;;;;;;;15.43;9.63;;;;;;;8.89;89.42;100403.47;5094768;27;20031;-87
2021/10/30 07:46:25;;;;;;;15.82;9.98;;;;;;;8.90;89.69;100397.19;5111599;27;20027;-90
2021/10/30 07:48:52;;;;;;;16.52;9.73;;;;;;;8.92;89.70;100410.31;5111791;28;20027;-89
2021/10/30 07:51:18;;;;;;;14.40;10.05;;;;;;;9.01;89.65;100428.00;5111659;28;20027;-86
2021/10/30 07:53:43;;;;;;;16.73;10.07;;;;;;;8.88;89.87;100415.97;5111047;28;20076;-86
2021/10/30 07:56:09;;;;;;;14.37;9.53;;;;;;;8.81;90.20;100414.09;5094292;27;20042;-83
2021/10/30 07:58:35;;;;;;;13.23;9.05;;;;;;;8.92;90.02;100432.47;5097257;28;20027;-90
2021/10/30 08:01:00;;;;;;;14.27;9.53;;;;;;;9.11;89.86;100463.34;5094829;28;20049;-89
2021/10/30 08:03:25;;;;;;;16.80;9.63;;;;;;;9.08;89.75;100443.19;5128984;27;20220;-90
2021/10/30 08:05:51;;;;;;;15.00;9.10;;;;;;;9.29;89.27;100456.09;5098548;27;20027;-89
2021/10/30 08:08:16;;;;;;;14.97;10.10;;;;;;;9.36;89.04;100452.75;5133852;27;20074;-90
2021/10/30 08:10:42;;;;;;;16.70;9.27;;;;;;;10.19;86.45;100479.41;5115522;27;20039;-90
2021/10/30 08:13:09;;;;;;;17.70;8.33;;;;;;;11.06;83.41;100481.47;5098597;27;20114;-90
2021/10/30 08:15:35;;;;;;;14.77;8.80;;;;;;;11.51;80.25;100453.22;5133058;27;20037;-87
2021/10/30 08:18:01;;;;;;;10.13;7.20;;;;;;;11.79;78.88;100456.22;5097479;27;20047;-90
2021/10/30 08:20:26;;;;;;;11.33;8.00;;;;;;;12.51;75.23;100422.88;5115459;27;20053;-87
2021/10/30 08:22:51;;;;;;;12.20;7.63;;;;;;;12.38;76.18;100420.81;5115477;27;20031;-91
2021/10/30 08:25:17;;;;;;;15.23;9.97;;;;;;;11.61;76.21;100341.50;5133178;27;20027;-89
2021/10/30 08:27:42;;;;;;;19.58;11.15;;;;;;;11.43;77.78;100354.38;5115591;27;20051;-90
2021/10/30 08:30:09;;;;;;;15.40;8.60;;;;;;;10.98;79.21;100343.44;5097981;27;20105;-89
2021/10/30 08:32:35;;;;;;;13.55;8.45;;;;;;;11.88;77.99;100428.44;5132979;27;20026;-89
2021/10/30 08:35:02;;;;;;;14.50;7.95;;;;;;;12.58;76.35;100431.84;5114751;27;20050;-89
2021/10/30 08:37:28;;;;;;;12.02;8.00;;;;;;;12.71;74.16;100423.97;5115285;27;20450;-89
2021/10/30 08:39:53;;;;;;;13.30;8.23;;;;;;;14.12;69.61;100429.97;5114950;27;20077;-90
2021/10/30 08:42:20;;;;;;;11.83;7.13;;;;;;;15.04;66.87;100420.06;5114534;27;20440;-90
2021/10/30 08:44:46;;;;;;;12.27;7.10;;;;;;;15.91;64.85;100411.25;5114165;27;20062;-89
2021/10/30 08:47:12;;;;;;;11.33;7.17;;;;;;;15.76;63.69;100364.84;5114229;27;20067;-89
2021/10/30 08:49:38;;;;;;;10.00;7.25;;;;;;;15.41;64.74;100360.41;5131105;27;20776;-90
2021/10/30 08:52:05;;;;;;;13.30;5.90;;;;;;;16.86;62.03;100413.69;5114209;27;20045;-90
2021/10/30 08:54:33;;;;;;;9.95;6.70;;;;;;;15.60;62.96;100323.81;5130975;27;20023;-90
2021/10/30 08:56:59;;;;;;;8.80;6.43;;;;;;;15.62;63.45;100316.38;5124406;27;20034;-89
2021/10/30 08:59:44;;;;;;;8.70;6.70;;;;;;;15.55;61.38;100250.16;5114390;27;20019;-88
2021/10/30 09:02:26;;;;;;;;;;;;;;;14.16;65.60;100235.25;5097915;27;20087;-89
2021/10/30 09:05:12;;;;;;;10.25;6.60;;;;;;;13.81;67.34;100261.25;5113817;27;19946;-88
2021/10/30 09:07:38;;;;;;;11.02;6.80;;;;;;;13.49;68.24;100255.44;5114362;27;20522;-87
2021/10/30 09:10:11;;;;;;;15.98;6.90;;;;;;;13.59;69.13;100288.13;5132197;27;20023;-86
2021/10/30 09:12:37;;;;;;;11.93;6.85;;;;;;;12.96;70.65;100245.00;5114814;27;20519;-89
2021/10/30 09:15:03;;;;;;;10.27;6.93;;;;;;;14.01;68.70;100323.13;5096877;27;20019;-87
2021/10/30 09:17:28;;;;;;;10.30;7.28;;;;;;;13.99;67.99;100287.59;5113162;27;20031;-88
2021/10/30 09:19:55;;;;;;;11.63;6.67;;;;;;;13.14;70.48;100246.44;5113928;27;20031;-87
2021/10/30 09:22:23;;;;;;;11.57;6.68;;;;;;;14.29;68.46;100332.00;5114325;27;20201;-87
2021/10/30 09:25:01;;;;;;;12.43;7.32;;;;;;;14.83;65.91;100321.56;5113493;27;20027;-86
2021/10/30 09:27:56;;;;;;;11.40;6.40;;;;;;;15.61;63.87;100330.84;5113769;27;20027;-86
2021/10/30 09:30:40;;;;;;;12.07;5.53;;;;;;;16.17;61.99;100313.47;5113542;27;20041;-89
2021/10/30 09:33:09;;;;;;;11.00;6.13;;;;;;;15.43;62.72;100241.88;5131484;27;20031;-87
2021/10/30 09:35:46;;;;;;;9.95;5.43;;;;;;;14.04;67.46;100210.81;5113581;27;20410;-87
2021/10/30 09:38:31;;;;;;;12.73;6.40;;;;;;;13.78;67.70;100200.75;5130411;27;20045;-88
2021/10/30 09:40:57;;;;;;;9.27;6.38;;;;;;;13.24;69.76;100218.28;5113613;27;20338;-88
2021/10/30 09:43:22;;;;;;;8.52;5.47;;;;;;;13.12;69.97;100208.28;5131330;27;20074;-87
2021/10/30 09:45:54;;;;;;;10.80;5.73;;;;;;;13.57;69.62;100268.72;5131602;27;20104;-87
2021/10/30 09:48:23;;;;;;;13.02;5.38;;;;;;;13.67;69.30;100250.44;5130818;27;20410;-87
2021/10/30 09:50:54;;;;;;;9.80;5.47;;;;;;;13.42;69.72;100233.94;5113586;27;20384;-87
2021/10/30 09:53:39;;;;;;;11.15;6.25;;;;;;;13.75;69.77;100267.41;5130978;27;20031;-87
2021/10/30 09:56:06;;;;;;;10.80;5.85;;;;;;;13.40;69.63;100206.47;5113143;27;20035;-86
2021/10/30 09:58:34;;;;;;;10.80;5.57;;;;;;;13.17;69.90;100179.03;5130963;27;20035;-85
2021/10/30 10:01:05;;;;;;;10.63;5.80;;;;;;;13.43;70.00;100235.59;5112921;27;20027;-87
2021/10/30 10:03:33;;;;;;;8.48;5.93;;;;;;;13.29;71.13;100228.44;5130823;27;20325;-86
2021/10/30 10:06:01;;;;;;;8.68;5.72;;;;;;;13.19;70.95;100206.47;5113060;27;20375;-86
2021/10/30 10:08:27;;;;;;;10.35;5.50;;;;;;;13.28;70.67;100210.72;5113404;27;20421;-86
2021/10/30 10:10:55;;;;;;;7.63;5.28;;;;;;;13.65;70.66;100254.31;5113015;27;20035;-87
2021/10/30 10:13:22;;;;;;;8.45;5.95;;;;;;;13.78;70.88;100254.44;5112018;27;20041;-85
2021/10/30 10:15:49;;;;;;;12.73;5.80;;;;;;;13.30;71.50;100206.81;5095430;27;20077;-85
2021/10/30 10:18:15;;;;;;;8.48;6.07;;;;;;;13.41;70.96;100223.41;5130275;27;20050;-86
2021/10/30 10:20:40;;;;;;;8.98;4.93;;;;;;;13.37;71.46;100233.69;5112331;27;20027;-85
2021/10/30 10:23:06;;;;;;;10.00;5.53;;;;;;;13.07;71.72;100212.34;5111688;27;20345;-86
2021/10/30 10:25:34;;;;;;;11.15;6.30;;;;;;;12.94;72.91;100228.28;5112109;27;20046;-87
2021/10/30 10:28:18;;;;;;;9.68;6.15;;;;;;;12.86;73.27;100207.81;5111102;27;20464;-87
2021/10/30 10:31:04;;;;;;;9.52;5.90;;;;;;;13.16;74.34;100266.66;5112055;27;20125;-86
2021/10/30 10:33:31;;;;;;;9.13;6.20;;;;;;;13.01;73.63;100236.41;5129672;27;20027;-85
2021/10/30 10:36:17;;;;;;;10.57;7.07;;;;;;;12.77;74.12;100205.47;5129463;27;20376;-86
2021/10/30 10:38:58;;;;;;;;;;;;;;;13.00;74.23;100235.56;5130108;27;20059;-86
2021/10/30 10:41:39;;;;;;;11.95;7.35;;;;;;;12.96;72.82;100199.47;5094546;27;19915;-85
2021/10/30 10:44:06;;;;;;;10.68;6.88;;;;;;;12.71;74.54;100192.81;5129071;27;20104;-85
2021/10/30 10:46:32;;;;;;;9.98;7.07;;;;;;;12.88;74.88;100229.06;5129632;27;20023;-81
2021/10/30 10:49:18;;;;;;;11.82;8.18;;;;;;;12.96;75.17;100236.97;5110032;27;20038;-83
2021/10/30 10:51:52;;;;;;;12.73;7.40;;;;;;;13.19;73.78;100239.47;5133867;27;20031;-83
2021/10/30 10:54:17;;;;;;;13.38;7.85;;;;;;;13.08;73.90;100214.00;5121301;27;20034;-82
2021/10/30 10:56:59;;;;;;;9.50;6.50;;;;;;;13.14;73.46;100216.97;5152214;27;20082;-83
2021/10/30 10:59:41;;;;;;;10.02;7.13;;;;;;;13.36;73.20;100226.66;5166313;27;20295;-83
2021/10/30 11:02:20;;;;;;;12.77;8.40;;;;;;;13.37;71.77;100189.94;5149782;27;20118;-81
2021/10/30 11:05:07;;;;;;;12.50;8.38;;;;;;;13.35;71.85;100183.97;5131195;27;20623;-83
2021/10/30 11:07:39;;;;;;;14.05;7.78;;;;;;;14.01;70.42;100231.88;5131728;27;20057;-80
2021/10/30 11:10:09;;;;;;;11.57;7.75;;;;;;;14.07;70.07;100218.50;5131951;27;20043;-80
2021/10/30 11:12:35;;;;;;;12.75;7.97;;;;;;;14.46;68.28;100202.75;5132425;27;20038;-81
2021/10/30 11:15:11;;;;;;;16.27;9.48;;;;;;;14.44;68.67;100200.25;5151416;27;20335;-82
2021/10/30 11:17:44;;;;;;;11.82;8.10;;;;;;;13.80;70.04;100142.38;5132913;27;20030;-82
2021/10/30 11:20:14;;;;;;;13.98;8.75;;;;;;;13.93;69.72;100133.59;5111298;27;20042;-80
2021/10/30 11:23:22;;;;;;;12.23;8.20;;;;;;;14.10;69.92;100158.22;5129008;27;20117;-80
2021/10/30 11:26:07;;;;;;;12.77;9.63;;;;;;;13.70;69.84;100107.06;5090394;27;20142;-83